X  Chiuso Dati meteorologici dell'aviazione (METAR)     EHKD De Kooy Airport
Temperatura
14°C Temperatura
10°C Punto di rugiada
77% Umidità



Vento
27 KM/O
17 MPH
8 M/S
15 KTS



210°
SSW
Condizioni attuali

Parzialmente nuvoloso Parzialmente nuvoloso
Pressione 1002.03 (hPa) - 29.59 (inHg)
Visibilità 6 (miglio) - 9.7 (km)
Aeroporto
Codice-Aeroporto EHKD

Posizione: De Kooy Airport
Distanza: 34 (km)

Metar:
EHKD 160127Z AUTO 21015KT 180V240 9999 FEW015CB BKN018 BKN022 BKN026 14/10 Q1002 WHT

Ore: 16-06-2024 03:27 CEST